Time;durP1;ratioP1;P1;durP2;ratioP2;P2;SDS_P1;SDS_P2;PMS_P1;PMS_P2;Temp;Humidity;BMP_temperature;BMP_pressure;BME280_temperature;BME280_humidity;BME280_pressure;Samples;Min_cycle;Max_cycle;Signal;HPM_P1;HPM_P2
2022/08/28 00:00:44;;;;;;;5.97;5.38;;;;;;;;;;5008893;28;20030;-43
2022/08/28 00:03:11;;;;;;;6.85;5.13;;;;;;;;;;4993055;28;20054;-43
2022/08/28 00:05:40;;;;;;;6.57;5.18;;;;;;;;;;4991468;28;20029;-43
2022/08/28 00:08:08;;;;;;;6.75;5.53;;;;;;;;;;4992119;28;20510;-54
2022/08/28 00:10:34;;;;;;;7.10;5.35;;;;;;;;;;4994762;28;20029;-44
2022/08/28 00:13:00;;;;;;;7.72;5.40;;;;;;;;;;4996696;28;20461;-43
2022/08/28 00:15:29;;;;;;;5.43;4.93;;;;;;;;;;4995525;28;20014;-43
2022/08/28 00:17:55;;;;;;;7.78;5.75;;;;;;;;;;5005833;28;20030;-49
2022/08/28 00:20:22;;;;;;;5.45;4.90;;;;;;;;;;4991369;28;20027;-43
2022/08/28 00:22:49;;;;;;;5.75;5.10;;;;;;;;;;4993791;28;20037;-43
2022/08/28 00:25:15;;;;;;;6.72;5.32;;;;;;;;;;4993129;28;20499;-43
2022/08/28 00:27:54;;;;;;;6.80;5.25;;;;;;;;;;4993298;28;20102;-46
2022/08/28 00:30:25;;;;;;;5.65;5.05;;;;;;;;;;4993087;28;20106;-45
2022/08/28 00:32:52;;;;;;;10.57;5.25;;;;;;;;;;4992488;28;20033;-47
2022/08/28 00:35:19;;;;;;;5.50;4.90;;;;;;;;;;4998766;28;20027;-45
2022/08/28 00:37:46;;;;;;;6.05;5.13;;;;;;;;;;4994913;28;20065;-44
2022/08/28 00:40:13;;;;;;;5.05;4.55;;;;;;;;;;4992799;28;20022;-46
2022/08/28 00:42:39;;;;;;;5.28;4.72;;;;;;;;;;4992977;28;20061;-43
2022/08/28 00:45:06;;;;;;;6.35;5.10;;;;;;;;;;4993958;28;20023;-53
2022/08/28 00:47:33;;;;;;;6.95;4.93;;;;;;;;;;4993318;28;20467;-43
2022/08/28 00:49:59;;;;;;;5.80;4.72;;;;;;;;;;4993483;28;20022;-43
2022/08/28 00:52:25;;;;;;;5.60;5.00;;;;;;;;;;4992467;28;20034;-45
2022/08/28 00:54:55;;;;;;;6.22;4.63;;;;;;;;;;4991514;28;20054;-43
2022/08/28 00:57:23;;;;;;;7.95;4.63;;;;;;;;;;4994353;28;20037;-43
2022/08/28 00:59:49;;;;;;;6.50;4.43;;;;;;;;;;4999643;28;20487;-43
2022/08/28 01:02:15;;;;;;;4.75;3.70;;;;;;;;;;5002676;28;20106;-45
2022/08/28 01:04:42;;;;;;;7.60;4.90;;;;;;;;;;5004424;28;20093;-43
2022/08/28 01:07:09;;;;;;;5.82;4.90;;;;;;;;;;5009265;28;20438;-53
2022/08/28 01:09:37;;;;;;;5.88;4.43;;;;;;;;;;4998480;28;20018;-43
2022/08/28 01:12:11;;;;;;;5.75;4.18;;;;;;;;;;5005010;28;20363;-43
2022/08/28 01:14:39;;;;;;;5.68;4.32;;;;;;;;;;5005231;28;20105;-43
2022/08/28 01:17:06;;;;;;;5.90;4.28;;;;;;;;;;5009793;28;20030;-43
2022/08/28 01:19:34;;;;;;;4.68;4.18;;;;;;;;;;4997509;28;20060;-43
2022/08/28 01:22:06;;;;;;;6.13;4.32;;;;;;;;;;5005032;28;20026;-43
2022/08/28 01:24:32;;;;;;;6.68;4.40;;;;;;;;;;5005433;28;20033;-44
2022/08/28 01:26:58;;;;;;;6.93;4.40;;;;;;;;;;4997248;28;20072;-44
2022/08/28 01:29:27;;;;;;;4.93;4.30;;;;;;;;;;5008786;28;20074;-44
2022/08/28 01:31:53;;;;;;;5.80;4.15;;;;;;;;;;4997079;28;20041;-45
2022/08/28 01:34:20;;;;;;;4.90;4.22;;;;;;;;;;5003301;28;20030;-44
2022/08/28 01:36:47;;;;;;;5.35;3.90;;;;;;;;;;4998408;28;20026;-45
2022/08/28 01:39:18;;;;;;;5.50;4.30;;;;;;;;;;4996468;28;20053;-44
2022/08/28 01:41:46;;;;;;;5.72;3.72;;;;;;;;;;5008656;28;20029;-48
2022/08/28 01:44:13;;;;;;;5.07;4.28;;;;;;;;;;5001966;28;20084;-52
2022/08/28 01:46:40;;;;;;;6.10;4.40;;;;;;;;;;5006330;28;20072;-43
2022/08/28 01:49:07;;;;;;;5.25;3.92;;;;;;;;;;4996259;28;20023;-43
2022/08/28 01:51:33;;;;;;;4.97;4.00;;;;;;;;;;5007757;28;20022;-47
2022/08/28 01:53:59;;;;;;;4.90;3.70;;;;;;;;;;5000833;28;20090;-45
2022/08/28 01:56:25;;;;;;;5.30;4.32;;;;;;;;;;5000160;28;20361;-45
2022/08/28 01:58:52;;;;;;;5.22;4.25;;;;;;;;;;4990261;28;20515;-45
2022/08/28 02:01:20;;;;;;;5.60;4.63;;;;;;;;;;4995710;28;20030;-46
2022/08/28 02:03:46;;;;;;;7.03;3.75;;;;;;;;;;5005703;28;20049;-45
2022/08/28 02:06:14;;;;;;;5.18;4.10;;;;;;;;;;4996758;28;20042;-49
2022/08/28 02:08:40;;;;;;;5.22;3.80;;;;;;;;;;5005783;28;20444;-46
2022/08/28 02:11:07;;;;;;;4.60;4.00;;;;;;;;;;4996012;28;20023;-45
2022/08/28 02:13:35;;;;;;;4.85;4.35;;;;;;;;;;5007270;28;20467;-44
2022/08/28 02:16:01;;;;;;;5.20;4.15;;;;;;;;;;5000780;28;20467;-45
2022/08/28 02:18:27;;;;;;;4.45;3.90;;;;;;;;;;4999296;28;20505;-48
2022/08/28 02:20:53;;;;;;;5.07;4.10;;;;;;;;;;5007731;28;20021;-45
2022/08/28 02:23:19;;;;;;;4.97;3.88;;;;;;;;;;4994586;28;20435;-43
2022/08/28 02:25:45;;;;;;;4.00;3.60;;;;;;;;;;5006128;28;20029;-46
2022/08/28 02:28:11;;;;;;;4.13;3.70;;;;;;;;;;5001706;28;20382;-54
2022/08/28 02:30:37;;;;;;;5.38;4.03;;;;;;;;;;4998936;28;20022;-44
2022/08/28 02:33:04;;;;;;;4.82;3.92;;;;;;;;;;5008442;28;20537;-46
2022/08/28 02:35:30;;;;;;;5.88;4.03;;;;;;;;;;4995616;28;20467;-45
2022/08/28 02:37:56;;;;;;;4.95;4.20;;;;;;;;;;5004341;28;20387;-46
2022/08/28 02:40:22;;;;;;;4.03;3.63;;;;;;;;;;4994938;28;20026;-48
2022/08/28 02:42:49;;;;;;;4.78;4.38;;;;;;;;;;5005168;28;20030;-44
2022/08/28 02:45:15;;;;;;;5.15;3.95;;;;;;;;;;4994924;28;20029;-43
2022/08/28 02:47:42;;;;;;;4.57;3.83;;;;;;;;;;5006456;28;20123;-47
2022/08/28 02:50:09;;;;;;;3.80;3.40;;;;;;;;;;5004718;28;20113;-44
2022/08/28 02:52:36;;;;;;;5.22;3.85;;;;;;;;;;5002892;28;20106;-46
2022/08/28 02:55:02;;;;;;;4.38;3.97;;;;;;;;;;5012311;28;20036;-47
2022/08/28 02:57:29;;;;;;;4.85;3.65;;;;;;;;;;4999022;28;20080;-47
2022/08/28 02:59:55;;;;;;;5.18;3.88;;;;;;;;;;5008416;28;20038;-50
2022/08/28 03:02:21;;;;;;;3.80;3.35;;;;;;;;;;5006132;28;20419;-47
2022/08/28 03:04:47;;;;;;;5.15;4.20;;;;;;;;;;5004631;28;20037;-47
2022/08/28 03:07:15;;;;;;;4.32;3.65;;;;;;;;;;4998889;28;20383;-53
2022/08/28 03:09:42;;;;;;;4.60;3.85;;;;;;;;;;5010104;28;20069;-44
2022/08/28 03:12:09;;;;;;;5.03;3.97;;;;;;;;;;5005174;28;20040;-45
2022/08/28 03:14:35;;;;;;;7.30;4.53;;;;;;;;;;4996492;28;20023;-43
2022/08/28 03:17:01;;;;;;;4.57;3.78;;;;;;;;;;4986668;28;20038;-45
2022/08/28 03:19:27;;;;;;;4.57;3.67;;;;;;;;;;4988379;28;20149;-44
2022/08/28 03:21:53;;;;;;;3.63;3.25;;;;;;;;;;4985677;28;20109;-43
2022/08/28 03:24:20;;;;;;;5.50;3.70;;;;;;;;;;4985448;28;20034;-50
2022/08/28 03:26:46;;;;;;;4.28;3.60;;;;;;;;;;4987079;28;20102;-43
2022/08/28 03:29:12;;;;;;;5.35;3.45;;;;;;;;;;4986703;28;20392;-54
2022/08/28 03:31:38;;;;;;;5.05;3.90;;;;;;;;;;4987913;28;20027;-44
2022/08/28 03:34:05;;;;;;;4.60;3.35;;;;;;;;;;4987157;28;20443;-46
2022/08/28 03:36:31;;;;;;;4.18;3.10;;;;;;;;;;4984432;28;20582;-44
2022/08/28 03:38:58;;;;;;;4.72;3.78;;;;;;;;;;4987996;28;20455;-45
2022/08/28 03:41:27;;;;;;;4.00;3.60;;;;;;;;;;4989889;28;20120;-47
2022/08/28 03:43:56;;;;;;;4.38;3.42;;;;;;;;;;4989868;28;20475;-48
2022/08/28 03:46:22;;;;;;;4.00;3.58;;;;;;;;;;5005509;28;20030;-45
2022/08/28 03:48:49;;;;;;;5.47;3.92;;;;;;;;;;5000254;28;20092;-45
2022/08/28 03:51:23;;;;;;;3.85;3.45;;;;;;;;;;5010629;28;20029;-47
2022/08/28 03:53:49;;;;;;;3.53;2.97;;;;;;;;;;5001633;28;20022;-44
2022/08/28 03:56:20;;;;;;;3.97;3.55;;;;;;;;;;5003935;28;20367;-44
2022/08/28 03:58:46;;;;;;;4.13;3.33;;;;;;;;;;5009373;28;20117;-45
2022/08/28 04:01:12;;;;;;;3.97;3.38;;;;;;;;;;4997497;28;20028;-54
2022/08/28 04:03:38;;;;;;;4.07;3.67;;;;;;;;;;5008764;28;20121;-43
2022/08/28 04:06:04;;;;;;;3.85;3.53;;;;;;;;;;4994067;28;20029;-43
2022/08/28 04:08:31;;;;;;;3.20;2.90;;;;;;;;;;4986710;28;20069;-50
2022/08/28 04:10:59;;;;;;;4.88;3.83;;;;;;;;;;4989640;28;20023;-43
2022/08/28 04:13:25;;;;;;;4.20;3.28;;;;;;;;;;4992174;28;20029;-43
2022/08/28 04:16:11;;;;;;;4.43;3.42;;;;;;;;;;4988857;28;20030;-47
2022/08/28 04:18:41;;;;;;;5.53;4.07;;;;;;;;;;4986534;28;20027;-43
2022/08/28 04:21:12;;;;;;;4.70;3.58;;;;;;;;;;4989144;28;20103;-43
2022/08/28 04:23:41;;;;;;;5.37;3.50;;;;;;;;;;4991072;28;20022;-43
2022/08/28 04:26:08;;;;;;;4.90;3.67;;;;;;;;;;4987873;28;20070;-44
2022/08/28 04:28:34;;;;;;;3.53;3.15;;;;;;;;;;4987468;28;20030;-44
2022/08/28 04:31:01;;;;;;;3.58;3.25;;;;;;;;;;4989416;28;20022;-51
2022/08/28 04:33:27;;;;;;;4.28;3.50;;;;;;;;;;4987006;28;20529;-43
2022/08/28 04:35:54;;;;;;;4.90;3.70;;;;;;;;;;4988484;28;20045;-43
2022/08/28 04:38:20;;;;;;;3.97;3.58;;;;;;;;;;4988629;28;20038;-44
2022/08/28 04:40:46;;;;;;;4.63;3.40;;;;;;;;;;4991343;28;20041;-46
2022/08/28 04:43:12;;;;;;;5.07;3.42;;;;;;;;;;4989335;28;20072;-53
2022/08/28 04:45:39;;;;;;;3.42;3.10;;;;;;;;;;4990356;28;20025;-43
2022/08/28 04:48:05;;;;;;;5.30;3.38;;;;;;;;;;4987405;28;20029;-47
2022/08/28 04:50:32;;;;;;;3.97;3.58;;;;;;;;;;4987399;28;20101;-45
2022/08/28 04:52:58;;;;;;;3.72;2.80;;;;;;;;;;4989094;28;20031;-44
2022/08/28 04:55:24;;;;;;;3.67;3.38;;;;;;;;;;4991279;28;20029;-44
2022/08/28 04:57:50;;;;;;;3.50;3.08;;;;;;;;;;4988182;28;20387;-43
2022/08/28 05:00:16;;;;;;;3.28;2.97;;;;;;;;;;4988043;28;20078;-43
2022/08/28 05:02:42;;;;;;;3.20;2.90;;;;;;;;;;4986102;28;20047;-46
2022/08/28 05:05:09;;;;;;;4.28;3.30;;;;;;;;;;4995354;28;20026;-46
2022/08/28 05:07:35;;;;;;;4.18;3.35;;;;;;;;;;4990152;28;20030;-45
2022/08/28 05:10:01;;;;;;;3.45;3.13;;;;;;;;;;4986600;28;20018;-49
2022/08/28 05:12:27;;;;;;;3.67;3.10;;;;;;;;;;4986772;28;20026;-46
2022/08/28 05:14:53;;;;;;;4.68;3.20;;;;;;;;;;4989153;28;20031;-43
2022/08/28 05:17:19;;;;;;;4.55;3.45;;;;;;;;;;5008677;28;20040;-44
2022/08/28 05:19:46;;;;;;;4.90;3.03;;;;;;;;;;4999730;28;20057;-43
2022/08/28 05:22:12;;;;;;;3.83;3.30;;;;;;;;;;5002957;28;20452;-53
2022/08/28 05:24:39;;;;;;;4.35;3.53;;;;;;;;;;5006405;28;20036;-43
2022/08/28 05:27:05;;;;;;;4.35;3.58;;;;;;;;;;4997495;28;20420;-45
2022/08/28 05:29:31;;;;;;;5.22;3.58;;;;;;;;;;5008093;28;20022;-47
2022/08/28 05:31:57;;;;;;;3.83;3.25;;;;;;;;;;5000888;28;20026;-45
2022/08/28 05:34:24;;;;;;;5.22;3.97;;;;;;;;;;5001096;28;20080;-44
2022/08/28 05:36:50;;;;;;;6.22;4.50;;;;;;;;;;4978535;28;20035;-43
2022/08/28 05:39:16;;;;;;;5.03;3.75;;;;;;;;;;4992925;28;20022;-52
2022/08/28 05:41:43;;;;;;;5.38;3.92;;;;;;;;;;5004229;28;20519;-43
2022/08/28 05:44:11;;;;;;;4.22;3.83;;;;;;;;;;4997382;28;20053;-43
2022/08/28 05:46:38;;;;;;;5.97;4.00;;;;;;;;;;4992341;28;20486;-44
2022/08/28 05:49:04;;;;;;;4.20;3.70;;;;;;;;;;4991841;28;20040;-44
2022/08/28 05:51:33;;;;;;;6.03;4.53;;;;;;;;;;4995537;28;20022;-44
2022/08/28 05:53:59;;;;;;;8.90;5.00;;;;;;;;;;5007477;28;20034;-43
2022/08/28 05:56:28;;;;;;;6.43;4.47;;;;;;;;;;4999746;28;20034;-48
2022/08/28 05:58:54;;;;;;;5.00;4.13;;;;;;;;;;5007695;28;20045;-47
2022/08/28 06:01:21;;;;;;;4.28;3.75;;;;;;;;;;4995330;28;20102;-43
2022/08/28 06:03:52;;;;;;;6.32;3.75;;;;;;;;;;5005293;28;20053;-49
2022/08/28 06:06:18;;;;;;;5.30;4.40;;;;;;;;;;4997192;28;20030;-44
2022/08/28 06:08:45;;;;;;;5.90;3.88;;;;;;;;;;5006633;28;20030;-45
2022/08/28 06:11:11;;;;;;;6.40;3.63;;;;;;;;;;4995895;28;20026;-44
2022/08/28 06:13:38;;;;;;;4.68;3.65;;;;;;;;;;5006485;28;20019;-43
2022/08/28 06:16:04;;;;;;;5.93;4.07;;;;;;;;;;5000927;28;20344;-46
2022/08/28 06:18:30;;;;;;;6.03;3.88;;;;;;;;;;4999066;28;20081;-42
2022/08/28 06:20:59;;;;;;;8.05;3.45;;;;;;;;;;5004230;28;20038;-43
2022/08/28 06:23:25;;;;;;;8.30;3.60;;;;;;;;;;5006997;28;20093;-44
2022/08/28 06:25:51;;;;;;;8.35;3.55;;;;;;;;;;4999409;28;20057;-45
2022/08/28 06:28:20;;;;;;;6.00;3.85;;;;;;;;;;5000688;28;20110;-52
2022/08/28 06:30:46;;;;;;;7.63;3.90;;;;;;;;;;5006416;28;20061;-43
2022/08/28 06:33:15;;;;;;;6.78;4.47;;;;;;;;;;4995559;28;20022;-44
2022/08/28 06:35:42;;;;;;;4.63;4.15;;;;;;;;;;4988807;28;20041;-44
2022/08/28 06:38:08;;;;;;;8.18;3.75;;;;;;;;;;4994638;28;20038;-43
2022/08/28 06:40:41;;;;;;;7.70;4.00;;;;;;;;;;5003785;28;20109;-49
2022/08/28 06:43:08;;;;;;;9.88;4.13;;;;;;;;;;4995601;28;20031;-43
2022/08/28 06:45:34;;;;;;;5.05;3.63;;;;;;;;;;5006480;28;20018;-43
2022/08/28 06:48:00;;;;;;;4.72;3.65;;;;;;;;;;5000107;28;20026;-43
2022/08/28 06:50:26;;;;;;;5.57;4.03;;;;;;;;;;4999139;28;20463;-44
2022/08/28 06:52:52;;;;;;;4.60;3.47;;;;;;;;;;4996742;28;20037;-46
2022/08/28 06:55:18;;;;;;;6.32;3.55;;;;;;;;;;4991981;28;20475;-43
2022/08/28 06:57:44;;;;;;;5.32;3.75;;;;;;;;;;4998997;28;20140;-43
2022/08/28 07:00:11;;;;;;;5.78;4.00;;;;;;;;;;4990573;28;20050;-44
2022/08/28 07:02:37;;;;;;;5.00;3.60;;;;;;;;;;4995564;28;20529;-48
2022/08/28 07:05:03;;;;;;;6.57;4.78;;;;;;;;;;4997118;28;20038;-46
2022/08/28 07:07:29;;;;;;;7.60;4.53;;;;;;;;;;5004861;28;20049;-44
2022/08/28 07:09:55;;;;;;;5.20;3.92;;;;;;;;;;4993484;28;20045;-49
2022/08/28 07:12:21;;;;;;;6.70;4.30;;;;;;;;;;4993423;28;20027;-43
2022/08/28 07:14:47;;;;;;;5.72;3.58;;;;;;;;;;5000880;28;20045;-42
2022/08/28 07:17:13;;;;;;;7.40;4.75;;;;;;;;;;4994278;28;20537;-48
2022/08/28 07:19:39;;;;;;;8.57;5.38;;;;;;;;;;4984843;28;20116;-46
2022/08/28 07:22:05;;;;;;;10.50;6.20;;;;;;;;;;5001902;28;20022;-45
2022/08/28 07:24:31;;;;;;;9.70;6.18;;;;;;;;;;4997445;28;20034;-42
2022/08/28 07:26:57;;;;;;;9.30;5.57;;;;;;;;;;4994948;28;20027;-47
2022/08/28 07:29:23;;;;;;;10.45;5.95;;;;;;;;;;4987629;28;20038;-45
2022/08/28 07:31:51;;;;;;;9.45;6.18;;;;;;;;;;5003975;28;20085;-45
2022/08/28 07:34:18;;;;;;;10.73;6.47;;;;;;;;;;4995451;28;20042;-50
2022/08/28 07:36:44;;;;;;;9.23;6.05;;;;;;;;;;5000080;28;20061;-45
2022/08/28 07:39:11;;;;;;;7.63;5.43;;;;;;;;;;4996628;28;20062;-43
2022/08/28 07:41:39;;;;;;;9.40;5.88;;;;;;;;;;5008510;28;20081;-40
2022/08/28 07:46:53;;;;;;;12.80;6.60;;;;;;;;;;4996591;28;20036;-42
2022/08/28 07:49:19;;;;;;;14.13;6.28;;;;;;;;;;4998287;28;20069;-43
2022/08/28 07:51:45;;;;;;;8.00;5.47;;;;;;;;;;5011869;28;20029;-43
2022/08/28 07:54:11;;;;;;;18.38;7.93;;;;;;;;;;5006633;28;20130;-43
2022/08/28 07:56:39;;;;;;;9.18;6.10;;;;;;;;;;4996896;28;20178;-44
2022/08/28 07:59:06;;;;;;;9.95;6.25;;;;;;;;;;4992893;28;20045;-46
2022/08/28 08:01:36;;;;;;;7.93;6.10;;;;;;;;;;4997134;28;20021;-43
2022/08/28 08:04:04;;;;;;;9.13;5.93;;;;;;;;;;5001166;28;20583;-47
2022/08/28 08:06:30;;;;;;;9.50;6.10;;;;;;;;;;5002359;28;20386;-46
2022/08/28 08:08:56;;;;;;;9.02;6.35;;;;;;;;;;4993772;28;20084;-47
2022/08/28 08:11:22;;;;;;;10.35;5.97;;;;;;;;;;4996993;28;20041;-43
2022/08/28 08:13:48;;;;;;;7.75;5.22;;;;;;;;;;4998150;28;20030;-45
2022/08/28 08:16:16;;;;;;;7.60;5.82;;;;;;;;;;4996872;28;20022;-48
2022/08/28 08:18:43;;;;;;;10.05;6.82;;;;;;;;;;4983150;28;20042;-42
2022/08/28 08:21:10;;;;;;;9.23;6.05;;;;;;;;;;4998502;28;20507;-45
2022/08/28 08:23:37;;;;;;;9.63;5.93;;;;;;;;;;4994771;28;20021;-44
2022/08/28 08:26:05;;;;;;;10.07;6.72;;;;;;;;;;4993324;28;20395;-42
2022/08/28 08:28:33;;;;;;;12.30;5.90;;;;;;;;;;4987402;28;20031;-42
2022/08/28 08:31:25;;;;;;;15.18;7.47;;;;;;;;;;5005800;28;20041;-42
2022/08/28 08:33:53;;;;;;;8.85;6.28;;;;;;;;;;4985515;28;20119;-44
2022/08/28 08:36:20;;;;;;;7.93;5.93;;;;;;;;;;5001626;28;20373;-48
2022/08/28 08:38:46;;;;;;;10.82;6.50;;;;;;;;;;4983963;28;20491;-42
2022/08/28 08:41:13;;;;;;;9.85;6.57;;;;;;;;;;5007679;28;20045;-42
2022/08/28 08:43:48;;;;;;;10.10;6.55;;;;;;;;;;4993383;28;20121;-43
2022/08/28 08:46:14;;;;;;;8.80;6.25;;;;;;;;;;5002272;28;20471;-41
2022/08/28 08:48:42;;;;;;;10.38;5.75;;;;;;;;;;4985335;28;20031;-43
2022/08/28 08:51:21;;;;;;;6.50;5.80;;;;;;;;;;5006982;28;20096;-42
2022/08/28 08:53:53;;;;;;;10.57;6.93;;;;;;;;;;4992571;28;20025;-44
2022/08/28 08:56:20;;;;;;;8.13;6.07;;;;;;;;;;5003047;28;20038;-48
2022/08/28 08:58:49;;;;;;;7.70;5.75;;;;;;;;;;4982395;28;20500;-43
2022/08/28 09:01:15;;;;;;;11.02;6.80;;;;;;;;;;5007598;28;20044;-42
2022/08/28 09:03:47;;;;;;;9.05;6.80;;;;;;;;;;4993248;28;20414;-45
2022/08/28 09:06:43;;;;;;;11.02;6.82;;;;;;;;;;5007055;28;20072;-44
2022/08/28 09:09:35;;;;;;;9.85;5.15;;;;;;;;;;4992559;28;20026;-45
2022/08/28 09:12:03;;;;;;;9.35;5.30;;;;;;;;;;5003225;28;20092;-45
2022/08/28 09:14:35;;;;;;;10.18;6.10;;;;;;;;;;5001971;28;20061;-45
2022/08/28 09:17:02;;;;;;;10.50;6.55;;;;;;;;;;4995961;28;20062;-48
2022/08/28 09:19:28;;;;;;;9.68;6.65;;;;;;;;;;4985619;28;20478;-42
2022/08/28 09:21:55;;;;;;;7.93;5.60;;;;;;;;;;5004357;28;20420;-42
2022/08/28 09:24:27;;;;;;;10.00;6.65;;;;;;;;;;4998384;28;20022;-48
2022/08/28 09:26:55;;;;;;;9.68;5.43;;;;;;;;;;4996328;28;20121;-42
2022/08/28 09:29:25;;;;;;;8.07;5.40;;;;;;;;;;4993688;28;20092;-48
2022/08/28 09:31:51;;;;;;;7.38;5.75;;;;;;;;;;5005092;28;20113;-47
2022/08/28 09:34:19;;;;;;;9.25;5.53;;;;;;;;;;4997890;28;20513;-49
2022/08/28 09:36:46;;;;;;;9.65;5.90;;;;;;;;;;4996869;28;20049;-44
2022/08/28 09:39:18;;;;;;;10.02;5.55;;;;;;;;;;4996219;28;20026;-44
2022/08/28 09:44:29;;;;;;;7.88;5.55;;;;;;;;;;4998270;28;20402;-47
2022/08/28 09:46:55;;;;;;;8.20;5.07;;;;;;;;;;4994814;28;20053;-41
2022/08/28 09:49:23;;;;;;;8.73;5.32;;;;;;;;;;5000408;28;20030;-43
2022/08/28 09:51:49;;;;;;;9.13;5.20;;;;;;;;;;5005466;28;20463;-43
2022/08/28 09:54:23;;;;;;;9.43;4.50;;;;;;;;;;5002975;28;20022;-43
2022/08/28 09:56:49;;;;;;;7.50;5.18;;;;;;;;;;4997706;28;20034;-42
2022/08/28 09:59:17;;;;;;;7.10;4.68;;;;;;;;;;5008925;28;20022;-42
2022/08/28 10:01:49;;;;;;;9.20;4.80;;;;;;;;;;4995942;28;20029;-42
2022/08/28 10:04:15;;;;;;;7.28;5.18;;;;;;;;;;4999475;28;20060;-43
2022/08/28 10:07:03;;;;;;;8.38;5.38;;;;;;;;;;4988475;28;20600;-44
2022/08/28 10:09:38;;;;;;;7.40;4.72;;;;;;;;;;4989648;28;20026;-44
2022/08/28 10:12:04;;;;;;;7.28;5.65;;;;;;;;;;4983945;28;20126;-44
2022/08/28 10:14:45;;;;;;;6.38;4.40;;;;;;;;;;4994134;28;20494;-45
2022/08/28 10:17:30;;;;;;;8.33;4.93;;;;;;;;;;4997696;28;20431;-45
2022/08/28 10:20:08;;;;;;;9.82;4.65;;;;;;;;;;4984744;28;20746;-44
2022/08/28 10:22:54;;;;;;;13.30;5.70;;;;;;;;;;4995002;28;20050;-43
2022/08/28 10:25:25;;;;;;;8.25;5.13;;;;;;;;;;5006531;28;20019;-50
2022/08/28 10:28:02;;;;;;;7.90;4.95;;;;;;;;;;5004838;28;20014;-45
2022/08/28 10:30:30;;;;;;;7.35;4.65;;;;;;;;;;4992881;28;20424;-42
2022/08/28 10:33:08;;;;;;;8.13;4.90;;;;;;;;;;5003771;28;20026;-44
2022/08/28 10:35:40;;;;;;;6.47;4.28;;;;;;;;;;4978603;28;20026;-42
2022/08/28 10:38:15;;;;;;;7.55;4.60;;;;;;;;;;5000310;28;20038;-43
2022/08/28 10:40:40;;;;;;;7.47;4.82;;;;;;;;;;4991086;28;20027;-44
2022/08/28 10:43:18;;;;;;;6.20;4.55;;;;;;;;;;5007851;28;20026;-45
2022/08/28 10:45:45;;;;;;;6.47;4.70;;;;;;;;;;4995503;28;20026;-46
2022/08/28 10:48:29;;;;;;;6.13;4.95;;;;;;;;;;5010661;28;20030;-44
2022/08/28 10:50:58;;;;;;;7.60;4.53;;;;;;;;;;4991052;28;23432;-45
2022/08/28 10:53:27;;;;;;;9.55;4.80;;;;;;;;;;4993391;28;20041;-43
2022/08/28 10:55:53;;;;;;;14.63;4.40;;;;;;;;;;5007709;28;20022;-48
2022/08/28 10:58:19;;;;;;;10.45;4.20;;;;;;;;;;5000045;28;20395;-53
2022/08/28 11:00:46;;;;;;;8.45;4.47;;;;;;;;;;4989816;28;20038;-44
2022/08/28 11:03:13;;;;;;;8.18;4.43;;;;;;;;;;5005215;28;20054;-43
2022/08/28 11:05:42;;;;;;;7.30;4.13;;;;;;;;;;4991831;28;20190;-45
2022/08/28 11:08:11;;;;;;;5.85;4.35;;;;;;;;;;4998324;28;20088;-45
2022/08/28 11:10:37;;;;;;;11.52;3.95;;;;;;;;;;4989371;28;20023;-45
2022/08/28 11:13:08;;;;;;;11.85;4.10;;;;;;;;;;5008371;28;20034;-43
2022/08/28 11:15:35;;;;;;;6.43;3.83;;;;;;;;;;4997553;28;20054;-46
2022/08/28 11:18:04;;;;;;;7.78;4.13;;;;;;;;;;5006030;28;20035;-43
2022/08/28 11:20:30;;;;;;;7.25;4.25;;;;;;;;;;4995567;28;20022;-43
2022/08/28 11:23:17;;;;;;;10.77;4.65;;;;;;;;;;5010483;28;20434;-45
2022/08/28 11:25:46;;;;;;;4.93;3.83;;;;;;;;;;4986825;28;20526;-48
2022/08/28 11:28:17;;;;;;;5.38;3.65;;;;;;;;;;5010152;28;20045;-44
2022/08/28 11:30:45;;;;;;;10.80;4.38;;;;;;;;;;4992940;28;20031;-42
2022/08/28 11:33:31;;;;;;;8.27;4.13;;;;;;;;;;5009058;28;20084;-43
2022/08/28 11:35:57;;;;;;;8.55;3.95;;;;;;;;;;5000511;28;20026;-45
2022/08/28 11:38:46;;;;;;;6.43;4.15;;;;;;;;;;5002028;28;20050;-54
2022/08/28 11:41:21;;;;;;;4.28;3.60;;;;;;;;;;4979564;28;20050;-45
2022/08/28 11:43:51;;;;;;;5.35;3.25;;;;;;;;;;5008134;28;20464;-43
2022/08/28 11:46:30;;;;;;;5.13;3.95;;;;;;;;;;4991285;28;20041;-47
2022/08/28 11:48:57;;;;;;;5.05;3.92;;;;;;;;;;4990784;28;20029;-45
2022/08/28 11:51:52;;;;;;;4.55;3.60;;;;;;;;;;4998619;28;20026;-52
2022/08/28 11:54:39;;;;;;;4.95;3.90;;;;;;;;;;4934461;28;20040;-50
2022/08/28 11:57:16;;;;;;;4.93;3.42;;;;;;;;;;5009722;28;20034;-43
2022/08/28 11:59:51;;;;;;;8.30;4.20;;;;;;;;;;4999646;28;20124;-45
2022/08/28 12:02:36;;;;;;;8.98;3.45;;;;;;;;;;5010378;28;20053;-43
2022/08/28 12:05:04;;;;;;;4.68;3.35;;;;;;;;;;5002950;28;20116;-44
2022/08/28 12:07:34;;;;;;;8.73;3.70;;;;;;;;;;4997992;28;20026;-44
2022/08/28 12:10:00;;;;;;;5.05;3.50;;;;;;;;;;5006489;28;20031;-43
2022/08/28 12:12:32;;;;;;;7.38;4.13;;;;;;;;;;5005572;28;20026;-45
2022/08/28 12:14:59;;;;;;;5.38;3.72;;;;;;;;;;4998427;28;20037;-47
2022/08/28 12:17:29;;;;;;;5.72;3.75;;;;;;;;;;5010191;28;20033;-43
2022/08/28 12:20:10;;;;;;;5.15;4.28;;;;;;;;;;5001930;28;20034;-45
2022/08/28 12:22:44;;;;;;;4.72;3.33;;;;;;;;;;4999307;28;20027;-43
2022/08/28 12:25:18;;;;;;;3.58;2.90;;;;;;;;;;5010899;28;20076;-45
2022/08/28 12:27:44;;;;;;;6.43;3.63;;;;;;;;;;4999949;28;20033;-45
2022/08/28 12:30:13;;;;;;;4.60;3.63;;;;;;;;;;5004879;28;20353;-43
2022/08/28 12:32:44;;;;;;;7.35;3.85;;;;;;;;;;5007012;28;20030;-43
2022/08/28 12:35:16;;;;;;;5.55;3.30;;;;;;;;;;4997793;28;20061;-46
2022/08/28 12:37:42;;;;;;;7.85;3.72;;;;;;;;;;5007455;28;20073;-42
2022/08/28 12:40:08;;;;;;;6.78;4.00;;;;;;;;;;4995195;28;20037;-43
2022/08/28 12:42:37;;;;;;;4.30;3.35;;;;;;;;;;5006482;28;20379;-43
2022/08/28 12:45:05;;;;;;;5.40;3.63;;;;;;;;;;4997765;28;20380;-46
2022/08/28 12:47:32;;;;;;;4.22;3.42;;;;;;;;;;5009050;28;20084;-47
2022/08/28 12:49:58;;;;;;;4.53;3.70;;;;;;;;;;5002207;28;20029;-43
2022/08/28 12:52:26;;;;;;;7.03;3.67;;;;;;;;;;5001611;28;20108;-54
2022/08/28 12:54:54;;;;;;;4.55;3.38;;;;;;;;;;5009062;28;20132;-46
2022/08/28 12:57:22;;;;;;;5.50;3.13;;;;;;;;;;4997444;28;20046;-46
2022/08/28 12:59:55;;;;;;;3.47;3.17;;;;;;;;;;5006781;28;20029;-42
2022/08/28 13:02:26;;;;;;;5.18;3.75;;;;;;;;;;5005151;28;20025;-42
2022/08/28 13:05:00;;;;;;;6.10;3.53;;;;;;;;;;5001975;28;20021;-44
2022/08/28 13:07:30;;;;;;;4.28;3.28;;;;;;;;;;4980369;28;20104;-52
2022/08/28 13:09:59;;;;;;;5.32;3.40;;;;;;;;;;5006152;28;20026;-43
2022/08/28 13:12:26;;;;;;;4.85;3.60;;;;;;;;;;5000742;28;20537;-53
2022/08/28 13:14:53;;;;;;;6.53;3.50;;;;;;;;;;4997706;28;20034;-51
2022/08/28 13:17:38;;;;;;;4.10;3.60;;;;;;;;;;5008942;28;20049;-43
2022/08/28 13:20:07;;;;;;;4.38;3.40;;;;;;;;;;5013553;28;20418;-46
2022/08/28 13:22:34;;;;;;;6.50;3.40;;;;;;;;;;4993285;28;20026;-44
2022/08/28 13:25:01;;;;;;;4.93;3.20;;;;;;;;;;4994058;28;20027;-45
2022/08/28 13:27:27;;;;;;;5.30;3.53;;;;;;;;;;4993155;28;20034;-45
2022/08/28 13:29:53;;;;;;;4.78;3.38;;;;;;;;;;4993795;28;20022;-43
2022/08/28 13:32:19;;;;;;;3.47;3.10;;;;;;;;;;4993262;28;20109;-44
2022/08/28 13:35:04;;;;;;;5.40;3.50;;;;;;;;;;5002360;28;20045;-43
2022/08/28 13:37:41;;;;;;;4.60;3.45;;;;;;;;;;4996241;28;20049;-44
2022/08/28 13:40:08;;;;;;;4.60;3.05;;;;;;;;;;5009628;28;20033;-45
2022/08/28 13:42:34;;;;;;;3.72;3.17;;;;;;;;;;4995742;28;20029;-44
2022/08/28 13:45:00;;;;;;;5.05;3.58;;;;;;;;;;4997526;28;20033;-44
2022/08/28 13:47:26;;;;;;;4.45;3.25;;;;;;;;;;5012605;28;20022;-53
2022/08/28 13:49:52;;;;;;;5.03;3.10;;;;;;;;;;4992578;28;20022;-43
2022/08/28 13:52:18;;;;;;;5.32;3.60;;;;;;;;;;4993391;28;20113;-46
2022/08/28 13:54:44;;;;;;;3.90;3.47;;;;;;;;;;4986541;28;20034;-47
2022/08/28 13:57:11;;;;;;;4.60;3.30;;;;;;;;;;4988943;28;20042;-45
2022/08/28 13:59:37;;;;;;;4.63;3.20;;;;;;;;;;5000126;28;20073;-42
2022/08/28 14:04:49;;;;;;;4.55;3.30;;;;;;;;;;4994426;28;20101;-43
2022/08/28 14:07:15;;;;;;;5.68;3.20;;;;;;;;;;4997899;28;20046;-43
2022/08/28 14:09:41;;;;;;;4.05;2.88;;;;;;;;;;4998290;28;20667;-46
2022/08/28 14:12:08;;;;;;;4.15;3.05;;;;;;;;;;5004853;28;20042;-43
2022/08/28 14:14:35;;;;;;;3.08;2.78;;;;;;;;;;5011098;28;20032;-44
2022/08/28 14:17:02;;;;;;;4.90;3.33;;;;;;;;;;4974686;28;20043;-43
2022/08/28 14:19:28;;;;;;;3.50;2.65;;;;;;;;;;4972182;28;20031;-53
2022/08/28 14:21:55;;;;;;;4.65;2.80;;;;;;;;;;4972980;28;20038;-44
2022/08/28 14:24:21;;;;;;;5.72;3.22;;;;;;;;;;4974972;28;21518;-44
2022/08/28 14:26:47;;;;;;;4.72;3.15;;;;;;;;;;4984968;28;20053;-44
2022/08/28 14:29:14;;;;;;;3.67;3.10;;;;;;;;;;4992217;28;20120;-43
2022/08/28 14:31:42;;;;;;;3.60;2.67;;;;;;;;;;4975557;28;20037;-43
2022/08/28 14:34:09;;;;;;;4.80;3.25;;;;;;;;;;4987873;28;20110;-43
2022/08/28 14:36:35;;;;;;;4.65;2.50;;;;;;;;;;4975888;28;20482;-44
2022/08/28 14:39:02;;;;;;;8.25;3.35;;;;;;;;;;4972456;28;20082;-43
2022/08/28 14:41:28;;;;;;;5.07;3.13;;;;;;;;;;4980992;28;20093;-52
2022/08/28 14:43:55;;;;;;;4.22;3.15;;;;;;;;;;4991464;28;20034;-44
2022/08/28 14:46:22;;;;;;;4.50;3.45;;;;;;;;;;4977821;28;20043;-43
2022/08/28 14:48:49;;;;;;;5.13;3.53;;;;;;;;;;4972167;28;20041;-43
2022/08/28 14:51:18;;;;;;;6.47;3.00;;;;;;;;;;4972316;28;20042;-43
2022/08/28 14:53:44;;;;;;;3.65;2.90;;;;;;;;;;4971004;28;20033;-48
2022/08/28 14:56:10;;;;;;;3.75;2.63;;;;;;;;;;4978421;28;20043;-44
2022/08/28 14:58:37;;;;;;;5.03;2.83;;;;;;;;;;4990749;28;20042;-42